createdAt,value
2022-12-25T00:02:30.795Z,21.91
2022-12-25T00:05:01.799Z,21.90
2022-12-25T00:07:32.587Z,21.89
2022-12-25T00:10:03.396Z,21.90
2022-12-25T00:12:34.196Z,21.89
2022-12-25T00:15:05.351Z,21.89
2022-12-25T00:17:36.386Z,21.88
2022-12-25T00:20:08.893Z,21.89
2022-12-25T00:22:39.692Z,21.88
2022-12-25T00:25:11.218Z,21.87
2022-12-25T00:27:41.938Z,21.87
2022-12-25T00:30:14.607Z,21.86
2022-12-25T00:32:45.351Z,21.86
2022-12-25T00:35:16.249Z,21.85
2022-12-25T00:37:46.888Z,21.80
2022-12-25T00:40:17.957Z,21.82
2022-12-25T00:42:49.773Z,21.81
2022-12-25T00:45:20.535Z,21.80
2022-12-25T00:47:51.269Z,21.79
2022-12-25T00:50:22.230Z,21.79
2022-12-25T00:52:52.871Z,21.77
2022-12-25T00:55:23.787Z,21.77
2022-12-25T00:57:54.397Z,21.76
2022-12-25T01:00:25.263Z,21.76
2022-12-25T01:02:56.047Z,21.72
2022-12-25T01:05:26.947Z,21.70
2022-12-25T01:07:57.612Z,21.69
2022-12-25T01:10:28.421Z,21.70
2022-12-25T01:12:59.124Z,21.69
2022-12-25T01:15:29.903Z,21.69
2022-12-25T01:18:04.095Z,21.68
2022-12-25T01:20:38.535Z,21.67
2022-12-25T01:23:09.924Z,21.62
2022-12-25T01:25:40.940Z,21.59
2022-12-25T01:28:11.835Z,21.55
2022-12-25T01:30:48.488Z,21.57
2022-12-25T01:33:19.138Z,21.61
2022-12-25T01:35:49.938Z,21.63
2022-12-25T01:38:20.891Z,21.62
2022-12-25T01:40:51.593Z,21.61
2022-12-25T01:43:27.681Z,21.60
2022-12-25T01:45:59.320Z,21.59
2022-12-25T01:48:33.842Z,21.58
2022-12-25T01:51:07.929Z,21.57
2022-12-25T01:53:38.727Z,21.56
2022-12-25T01:56:10.949Z,21.56
2022-12-25T01:58:41.912Z,21.56
2022-12-25T02:01:12.756Z,21.57
2022-12-25T02:03:43.602Z,21.58
2022-12-25T02:06:14.752Z,21.57
2022-12-25T02:08:45.987Z,21.58
2022-12-25T02:11:36.942Z,21.55
2022-12-25T02:14:07.675Z,21.58
2022-12-25T02:16:57.546Z,21.59
2022-12-25T02:19:48.800Z,21.57
2022-12-25T02:22:34.799Z,21.57
2022-12-25T02:25:21.911Z,21.53
2022-12-25T02:28:09.374Z,21.55
2022-12-25T02:30:44.914Z,21.53
2022-12-25T02:33:39.402Z,21.53
2022-12-25T02:36:15.133Z,21.52
2022-12-25T02:39:04.734Z,21.51
2022-12-25T02:41:40.689Z,21.50
2022-12-25T02:44:34.138Z,21.49
2022-12-25T02:47:25.805Z,21.41
2022-12-25T02:50:15.882Z,21.33
2022-12-25T02:53:05.968Z,21.27
2022-12-25T02:55:57.569Z,21.28
2022-12-25T02:58:47.275Z,21.33
2022-12-25T03:01:39.761Z,21.36
2022-12-25T03:04:33.979Z,21.36
2022-12-25T03:07:11.960Z,21.35
2022-12-25T03:10:06.460Z,21.31
2022-12-25T03:12:49.731Z,21.29
2022-12-25T03:15:38.772Z,21.33
2022-12-25T03:18:12.843Z,21.36
2022-12-25T03:21:01.795Z,21.39
2022-12-25T03:23:53.587Z,21.45
2022-12-25T03:26:43.467Z,21.51
2022-12-25T03:29:34.757Z,21.56
2022-12-25T03:32:14.475Z,21.62
2022-12-25T03:35:11.691Z,21.67
2022-12-25T03:38:12.464Z,21.72
2022-12-25T03:41:14.722Z,21.79
2022-12-25T03:44:10.562Z,21.84
2022-12-25T03:47:06.209Z,21.88
2022-12-25T03:50:03.939Z,21.92
2022-12-25T03:52:55.421Z,21.97
2022-12-25T03:55:45.767Z,21.96
2022-12-25T03:58:40.325Z,22.04
2022-12-25T04:01:28.640Z,22.07
2022-12-25T04:04:17.256Z,22.10
2022-12-25T04:07:06.132Z,22.12
2022-12-25T04:09:54.777Z,22.15
2022-12-25T04:12:44.730Z,22.15
2022-12-25T04:15:33.571Z,22.16
2022-12-25T04:18:22.144Z,22.17
2022-12-25T04:21:10.588Z,22.17
2022-12-25T04:23:59.127Z,22.17
2022-12-25T04:26:47.630Z,22.17
2022-12-25T04:29:36.072Z,22.16
2022-12-25T04:32:24.996Z,22.15
2022-12-25T04:35:13.267Z,22.14
2022-12-25T04:37:44.234Z,22.14
2022-12-25T04:40:15.788Z,22.13
2022-12-25T04:42:46.729Z,22.13
2022-12-25T04:45:17.561Z,22.13
2022-12-25T04:47:48.331Z,22.13
2022-12-25T04:50:19.615Z,22.13
2022-12-25T04:52:50.309Z,22.12
2022-12-25T04:55:21.342Z,22.11
2022-12-25T04:57:51.982Z,22.10
2022-12-25T05:00:23.453Z,22.08
2022-12-25T05:02:54.388Z,22.07
2022-12-25T05:05:25.189Z,22.05
2022-12-25T05:07:55.843Z,22.03
2022-12-25T05:10:26.705Z,22.03
2022-12-25T05:12:57.337Z,22.02
2022-12-25T05:15:27.965Z,22.01
2022-12-25T05:17:58.712Z,22.00
2022-12-25T05:20:33.364Z,22.00
2022-12-25T05:23:07.102Z,21.98
2022-12-25T05:25:41.940Z,21.95
2022-12-25T05:28:12.863Z,21.93
2022-12-25T05:30:43.487Z,21.91
2022-12-25T05:33:14.292Z,21.90
2022-12-25T05:35:44.946Z,21.89
2022-12-25T05:38:15.883Z,21.89
2022-12-25T05:40:46.610Z,21.88
2022-12-25T05:43:17.332Z,21.86
2022-12-25T05:45:48.392Z,21.83
2022-12-25T05:48:19.010Z,21.73
2022-12-25T05:50:49.973Z,21.78
2022-12-25T05:53:20.706Z,21.76
2022-12-25T05:55:51.343Z,21.75
2022-12-25T05:58:22.075Z,21.72
2022-12-25T06:00:52.722Z,21.71
2022-12-25T06:03:23.808Z,21.71
2022-12-25T06:05:55.092Z,21.69
2022-12-25T06:08:25.852Z,21.64
2022-12-25T06:10:56.586Z,21.64
2022-12-25T06:13:27.212Z,21.62
2022-12-25T06:16:01.451Z,21.61
2022-12-25T06:18:32.118Z,21.58
2022-12-25T06:21:02.932Z,21.57
2022-12-25T06:23:35.861Z,21.55
2022-12-25T06:26:08.580Z,21.53
2022-12-25T06:28:43.113Z,21.52
2022-12-25T06:31:16.330Z,21.49
2022-12-25T06:33:47.142Z,21.48
2022-12-25T06:36:20.462Z,21.46
2022-12-25T06:38:51.598Z,21.43
2022-12-25T06:41:24.895Z,21.42
2022-12-25T06:43:57.406Z,21.40
2022-12-25T06:46:29.943Z,21.38
2022-12-25T06:49:01.926Z,21.38
2022-12-25T06:51:34.059Z,21.37
2022-12-25T06:54:06.009Z,21.35
2022-12-25T06:56:36.942Z,21.34
2022-12-25T06:59:10.908Z,21.32
2022-12-25T07:01:48.161Z,21.29
2022-12-25T07:04:22.336Z,21.28
2022-12-25T07:06:53.444Z,21.26
2022-12-25T07:09:24.183Z,21.25
2022-12-25T07:11:55.229Z,21.24
2022-12-25T07:14:26.170Z,21.25
2022-12-25T07:16:56.838Z,21.26
2022-12-25T07:19:28.180Z,21.35
2022-12-25T07:21:59.376Z,21.38
2022-12-25T07:24:30.047Z,21.38
2022-12-25T07:27:00.793Z,21.46
2022-12-25T07:29:31.493Z,21.55
2022-12-25T07:32:02.356Z,21.49
2022-12-25T07:34:33.136Z,21.43
2022-12-25T07:37:03.958Z,21.39
2022-12-25T07:39:35.521Z,21.36
2022-12-25T07:42:07.059Z,21.40
2022-12-25T07:44:37.892Z,21.43
2022-12-25T07:47:08.628Z,21.43
2022-12-25T07:49:40.086Z,21.43
2022-12-25T07:52:10.878Z,21.38
2022-12-25T07:54:42.607Z,21.44
2022-12-25T07:57:13.421Z,21.44
2022-12-25T07:59:44.154Z,21.39
2022-12-25T08:02:15.200Z,21.36
2022-12-25T08:04:46.189Z,21.37
2022-12-25T08:07:16.924Z,21.37
2022-12-25T08:09:48.255Z,21.38
2022-12-25T08:12:19.137Z,21.38
2022-12-25T08:14:50.130Z,21.39
2022-12-25T08:17:20.977Z,21.39
2022-12-25T08:19:51.815Z,21.37
2022-12-25T08:22:22.576Z,21.30
2022-12-25T08:24:53.502Z,21.23
2022-12-25T08:27:24.304Z,21.19
2022-12-25T08:29:55.373Z,21.15
2022-12-25T08:32:26.437Z,21.13
2022-12-25T08:34:57.299Z,21.11
2022-12-25T08:37:30.217Z,21.11
2022-12-25T08:40:01.094Z,21.13
2022-12-25T08:42:31.821Z,21.16
2022-12-25T08:45:02.554Z,21.17
2022-12-25T08:47:33.511Z,21.19
2022-12-25T08:50:04.552Z,21.21
2022-12-25T08:52:35.221Z,21.24
2022-12-25T08:55:06.657Z,21.27
2022-12-25T08:57:37.329Z,21.30
2022-12-25T09:00:10.538Z,21.33
2022-12-25T09:02:41.857Z,21.36
2022-12-25T09:05:13.579Z,21.39
2022-12-25T09:07:44.615Z,21.41
2022-12-25T09:10:15.879Z,21.44
2022-12-25T09:12:46.714Z,21.47
2022-12-25T09:15:17.562Z,21.50
2022-12-25T09:17:48.414Z,21.54
2022-12-25T09:20:19.392Z,21.58
2022-12-25T09:22:50.184Z,21.62
2022-12-25T09:25:21.119Z,21.64
2022-12-25T09:27:51.932Z,21.62
2022-12-25T09:30:26.487Z,21.70
2022-12-25T09:32:57.588Z,21.73
2022-12-25T09:35:28.475Z,21.75
2022-12-25T09:37:59.509Z,21.79
2022-12-25T09:40:34.085Z,21.80
2022-12-25T09:43:05.984Z,21.83
2022-12-25T09:45:39.903Z,21.87
2022-12-25T09:48:16.907Z,21.90
2022-12-25T09:50:53.347Z,21.92
2022-12-25T09:53:26.753Z,21.95
2022-12-25T09:56:05.794Z,21.99
2022-12-25T09:58:36.922Z,22.03
2022-12-25T10:01:22.856Z,22.06
2022-12-25T10:04:11.170Z,22.09
2022-12-25T10:06:56.458Z,22.14
2022-12-25T10:09:46.340Z,22.18
2022-12-25T10:12:30.821Z,22.22
2022-12-25T10:15:14.303Z,22.27
2022-12-25T10:18:01.925Z,22.31
2022-12-25T10:20:46.457Z,22.32
2022-12-25T10:23:20.303Z,22.38
2022-12-25T10:25:53.691Z,22.42
2022-12-25T10:28:28.195Z,22.44
2022-12-25T10:31:07.636Z,22.46
2022-12-25T10:33:38.519Z,22.49
2022-12-25T10:36:10.842Z,22.51
2022-12-25T10:38:41.603Z,22.54
2022-12-25T10:41:23.885Z,22.56
2022-12-25T10:43:56.706Z,22.58
2022-12-25T10:46:30.864Z,22.59
2022-12-25T10:49:04.013Z,22.60
2022-12-25T10:51:36.472Z,22.60
2022-12-25T10:54:22.952Z,22.61
2022-12-25T10:56:59.486Z,22.60
2022-12-25T10:59:32.017Z,22.61
2022-12-25T11:02:15.418Z,22.62
2022-12-25T11:04:46.844Z,22.66
2022-12-25T11:07:26.623Z,22.70
2022-12-25T11:10:02.657Z,22.73
2022-12-25T11:12:39.159Z,22.71
2022-12-25T11:15:35.888Z,22.75
2022-12-25T11:18:19.071Z,22.77
2022-12-25T11:20:54.781Z,22.78
2022-12-25T11:23:28.052Z,22.80
2022-12-25T11:26:00.432Z,22.81
2022-12-25T11:28:34.224Z,22.83
2022-12-25T11:31:09.855Z,22.85
2022-12-25T11:33:45.707Z,22.88
2022-12-25T11:36:24.124Z,22.91
2022-12-25T11:38:55.110Z,22.93
2022-12-25T11:41:33.621Z,22.94
2022-12-25T11:44:09.267Z,22.96
2022-12-25T11:46:44.641Z,22.98
2022-12-25T11:49:19.385Z,23.00
2022-12-25T11:51:55.318Z,23.01
2022-12-25T11:54:31.472Z,23.02
2022-12-25T11:57:06.289Z,23.03
2022-12-25T11:59:43.802Z,23.04
2022-12-25T12:02:26.849Z,23.04
2022-12-25T12:05:10.323Z,23.08
2022-12-25T12:07:54.266Z,23.08
2022-12-25T12:10:34.127Z,23.10
2022-12-25T12:13:19.562Z,23.11
2022-12-25T12:15:51.629Z,23.12
2022-12-25T12:18:32.816Z,23.14
2022-12-25T12:21:07.238Z,23.16
2022-12-25T12:23:52.383Z,23.18
2022-12-25T12:26:26.311Z,23.18
2022-12-25T12:28:59.644Z,23.17
2022-12-25T12:31:40.919Z,23.18
2022-12-25T12:34:22.942Z,23.19
2022-12-25T12:36:55.926Z,23.19
2022-12-25T12:39:33.389Z,23.19
2022-12-25T12:42:12.608Z,23.19
2022-12-25T12:44:43.739Z,23.20
2022-12-25T12:47:33.662Z,23.21
2022-12-25T12:50:05.783Z,23.23
2022-12-25T12:52:39.203Z,23.23
2022-12-25T12:55:13.752Z,23.25
2022-12-25T12:57:44.550Z,23.23
2022-12-25T13:00:21.325Z,23.28
2022-12-25T13:03:22.017Z,23.28
2022-12-25T13:05:55.676Z,23.30
2022-12-25T13:08:36.785Z,23.31
2022-12-25T13:11:20.175Z,23.34
2022-12-25T13:13:53.948Z,23.36
2022-12-25T13:16:32.285Z,23.37
2022-12-25T13:19:08.215Z,23.35
2022-12-25T13:21:39.089Z,23.40
2022-12-25T13:24:21.659Z,23.40
2022-12-25T13:26:52.540Z,23.40
2022-12-25T13:29:32.471Z,23.40
2022-12-25T13:32:06.335Z,23.38
2022-12-25T13:34:39.522Z,23.38
2022-12-25T13:37:14.618Z,23.37
2022-12-25T13:39:52.802Z,23.37
2022-12-25T13:42:26.716Z,23.38
2022-12-25T13:44:59.909Z,23.37
2022-12-25T13:47:34.100Z,23.37
2022-12-25T13:50:17.604Z,23.35
2022-12-25T13:52:48.874Z,23.32
2022-12-25T13:55:21.652Z,23.31
2022-12-25T13:57:56.447Z,23.28
2022-12-25T14:00:34.391Z,23.23
2022-12-25T14:03:07.461Z,23.25
2022-12-25T14:05:43.263Z,23.25
2022-12-25T14:08:20.656Z,23.23
2022-12-25T14:10:54.307Z,23.23
2022-12-25T14:13:25.411Z,23.23
2022-12-25T14:15:58.998Z,23.18
2022-12-25T14:18:30.863Z,23.17
2022-12-25T14:21:05.071Z,23.15
2022-12-25T14:23:43.838Z,23.13
2022-12-25T14:26:20.182Z,23.12
2022-12-25T14:28:53.462Z,23.10
2022-12-25T14:31:26.088Z,23.08
2022-12-25T14:33:57.436Z,23.07
2022-12-25T14:36:29.284Z,23.06
2022-12-25T14:39:01.945Z,23.03
2022-12-25T14:41:38.185Z,23.00
2022-12-25T14:44:31.184Z,23.00
2022-12-25T14:47:18.281Z,22.97
2022-12-25T14:49:49.379Z,22.96
2022-12-25T14:52:23.813Z,22.97
2022-12-25T14:54:58.102Z,22.96
2022-12-25T14:57:34.888Z,22.95
2022-12-25T15:00:20.040Z,22.95
2022-12-25T15:02:52.568Z,22.92
2022-12-25T15:05:29.633Z,22.91
2022-12-25T15:08:22.377Z,22.91
2022-12-25T15:11:01.015Z,22.89
2022-12-25T15:13:31.792Z,22.87
2022-12-25T15:16:07.664Z,22.84
2022-12-25T15:18:41.519Z,22.82
2022-12-25T15:21:18.774Z,22.81
2022-12-25T15:23:49.777Z,22.79
2022-12-25T15:26:20.851Z,22.80
2022-12-25T15:28:52.624Z,22.78
2022-12-25T15:31:27.340Z,22.78
2022-12-25T15:33:59.748Z,22.76
2022-12-25T15:36:31.033Z,22.72
2022-12-25T15:39:01.993Z,22.69
2022-12-25T15:41:53.299Z,22.67
2022-12-25T15:44:25.487Z,22.62
2022-12-25T15:46:57.291Z,22.61
2022-12-25T15:49:28.149Z,22.60
2022-12-25T15:51:59.005Z,22.58
2022-12-25T15:54:29.833Z,22.58
2022-12-25T15:57:04.755Z,22.56
2022-12-25T15:59:36.387Z,22.51
2022-12-25T16:02:17.593Z,22.51
2022-12-25T16:04:51.139Z,22.50
2022-12-25T16:07:25.084Z,22.49
2022-12-25T16:09:55.986Z,22.47
2022-12-25T16:12:27.339Z,22.45
2022-12-25T16:14:58.382Z,22.43
2022-12-25T16:17:29.113Z,22.41
2022-12-25T16:20:01.076Z,22.41
2022-12-25T16:22:33.024Z,22.38
2022-12-25T16:25:03.783Z,22.38
2022-12-25T16:27:34.934Z,22.38
2022-12-25T16:30:07.155Z,22.36
2022-12-25T16:32:38.042Z,22.36
2022-12-25T16:35:10.299Z,22.34
2022-12-25T16:37:41.664Z,22.34
2022-12-25T16:40:13.383Z,22.31
2022-12-25T16:42:44.332Z,22.31
2022-12-25T16:45:15.620Z,22.31
2022-12-25T16:47:46.728Z,22.31
2022-12-25T16:50:18.027Z,22.32
2022-12-25T16:52:49.149Z,22.30
2022-12-25T16:55:21.651Z,22.28
2022-12-25T16:57:56.008Z,22.28
2022-12-25T17:00:26.956Z,22.27
2022-12-25T17:02:58.281Z,22.26
2022-12-25T17:05:29.353Z,22.23
2022-12-25T17:08:00.668Z,22.22
2022-12-25T17:10:32.559Z,22.21
2022-12-25T17:13:03.465Z,22.21
2022-12-25T17:15:34.300Z,22.20
2022-12-25T17:18:05.248Z,22.18
2022-12-25T17:20:38.239Z,22.17
2022-12-25T17:23:08.916Z,22.16
2022-12-25T17:25:39.623Z,22.16
2022-12-25T17:28:10.552Z,22.15
2022-12-25T17:30:41.402Z,22.15
2022-12-25T17:33:12.228Z,22.15
2022-12-25T17:35:42.870Z,22.14
2022-12-25T17:38:13.932Z,22.13
2022-12-25T17:40:44.867Z,22.12
2022-12-25T17:43:20.772Z,22.11
2022-12-25T17:45:51.900Z,22.10
2022-12-25T17:48:22.768Z,22.10
2022-12-25T17:50:53.538Z,22.07
2022-12-25T17:53:24.579Z,22.07
2022-12-25T17:55:59.382Z,22.08
2022-12-25T17:58:30.491Z,22.07
2022-12-25T18:01:10.578Z,22.06
2022-12-25T18:03:41.953Z,22.05
2022-12-25T18:06:15.610Z,22.04
2022-12-25T18:08:47.472Z,22.04
2022-12-25T18:11:21.510Z,22.04
2022-12-25T18:13:53.579Z,22.03
2022-12-25T18:16:27.401Z,22.03
2022-12-25T18:18:59.702Z,22.01
2022-12-25T18:21:31.169Z,22.01
2022-12-25T18:24:02.923Z,22.01
2022-12-25T18:26:33.901Z,22.00
2022-12-25T18:29:04.980Z,22.01
2022-12-25T18:31:38.236Z,22.02
2022-12-25T18:34:08.937Z,22.03
2022-12-25T18:36:39.776Z,22.04
2022-12-25T18:39:13.255Z,22.04
2022-12-25T18:41:58.039Z,22.01
2022-12-25T18:44:30.389Z,22.01
2022-12-25T18:47:01.158Z,21.99
2022-12-25T18:49:32.095Z,21.98
2022-12-25T18:52:50.326Z,21.97
2022-12-25T18:54:54.740Z,21.95
2022-12-25T18:57:25.937Z,21.95
2022-12-25T18:59:56.640Z,21.94
2022-12-25T19:02:28.207Z,21.93
2022-12-25T19:04:59.430Z,21.93
2022-12-25T19:07:30.379Z,21.92
2022-12-25T19:10:03.494Z,21.90
2022-12-25T19:12:34.607Z,21.89
2022-12-25T19:15:06.189Z,21.89
2022-12-25T19:17:37.100Z,21.89
2022-12-25T19:20:09.708Z,21.89
2022-12-25T19:22:40.439Z,21.87
2022-12-25T19:25:12.549Z,21.86
2022-12-25T19:27:43.411Z,21.85
2022-12-25T19:30:15.834Z,21.85
2022-12-25T19:32:47.183Z,21.85
2022-12-25T19:35:18.728Z,21.84
2022-12-25T19:37:49.902Z,21.83
2022-12-25T19:40:21.312Z,21.88
2022-12-25T19:42:52.074Z,21.90
2022-12-25T19:45:23.159Z,21.91
2022-12-25T19:47:54.466Z,21.91
2022-12-25T19:50:28.481Z,21.90
2022-12-25T19:52:59.260Z,21.92
2022-12-25T19:55:32.826Z,21.93
2022-12-25T19:58:03.672Z,21.93
2022-12-25T20:00:35.335Z,21.90
2022-12-25T20:03:06.513Z,21.89
2022-12-25T20:05:38.233Z,21.88
2022-12-25T20:08:09.583Z,21.87
2022-12-25T20:10:45.345Z,21.84
2022-12-25T20:13:16.786Z,21.79
2022-12-25T20:15:47.995Z,21.76
2022-12-25T20:18:19.237Z,21.72
2022-12-25T20:20:50.465Z,21.68
2022-12-25T20:23:21.647Z,21.65
2022-12-25T20:25:52.726Z,21.62
2022-12-25T20:28:23.587Z,21.53
2022-12-25T20:30:54.522Z,21.56
2022-12-25T20:33:25.693Z,21.55
2022-12-25T20:36:00.019Z,21.52
2022-12-25T20:38:30.974Z,21.50
2022-12-25T20:43:58.312Z,21.47
2022-12-25T20:46:29.426Z,21.49
2022-12-25T20:49:02.343Z,21.47
2022-12-25T20:51:33.147Z,21.45
2022-12-25T20:54:09.130Z,21.44
2022-12-25T20:56:40.484Z,21.42
2022-12-25T20:59:12.744Z,21.41
2022-12-25T21:01:43.883Z,21.41
2022-12-25T21:04:16.666Z,21.39
2022-12-25T21:06:47.612Z,21.38
2022-12-25T21:09:18.460Z,21.37
2022-12-25T21:11:49.301Z,21.35
2022-12-25T21:14:20.097Z,21.32
2022-12-25T21:16:51.047Z,21.35
2022-12-25T21:19:22.128Z,21.37
2022-12-25T21:21:53.635Z,21.40
2022-12-25T21:24:24.417Z,21.40
2022-12-25T21:26:55.155Z,21.37
2022-12-25T21:29:26.240Z,21.33
2022-12-25T21:32:14.837Z,21.37
2022-12-25T21:34:45.692Z,21.36
2022-12-25T21:37:16.444Z,21.37
2022-12-25T21:39:49.943Z,21.37
2022-12-25T21:42:20.702Z,21.37
2022-12-25T21:44:52.268Z,21.37
2022-12-25T21:47:23.169Z,21.35
2022-12-25T21:50:11.769Z,21.33
2022-12-25T21:52:42.626Z,21.31
2022-12-25T21:55:13.538Z,21.31
2022-12-25T21:57:44.325Z,21.30
2022-12-25T22:00:16.573Z,21.31
2022-12-25T22:02:49.266Z,21.32
2022-12-25T22:05:34.149Z,21.33
2022-12-25T22:08:04.986Z,21.32
2022-12-25T22:10:38.584Z,21.32
2022-12-25T22:13:27.616Z,21.32
2022-12-25T22:16:23.798Z,21.30
2022-12-25T22:19:12.412Z,21.27
2022-12-25T22:21:43.241Z,21.25
2022-12-25T22:24:14.347Z,21.33
2022-12-25T22:26:46.272Z,21.37
2022-12-25T22:29:17.096Z,21.37
2022-12-25T22:31:48.658Z,21.31
2022-12-25T22:34:19.507Z,21.29
2022-12-25T22:36:50.807Z,21.25
2022-12-25T22:39:21.894Z,21.28
2022-12-25T22:41:54.577Z,21.32
2022-12-25T22:44:26.061Z,21.33
2022-12-25T22:46:57.404Z,21.35
2022-12-25T22:49:28.431Z,21.34
2022-12-25T22:51:59.528Z,21.34
2022-12-25T22:54:33.083Z,21.32
2022-12-25T22:57:03.784Z,21.29
2022-12-25T22:59:34.920Z,21.30
2022-12-25T23:02:05.788Z,21.33
2022-12-25T23:04:37.048Z,21.31
2022-12-25T23:07:08.718Z,21.32
2022-12-25T23:09:39.575Z,21.33
2022-12-25T23:12:31.541Z,21.33
2022-12-25T23:15:00.689Z,21.33
2022-12-25T23:17:49.622Z,21.31
2022-12-25T23:20:37.940Z,21.31
2022-12-25T23:23:28.300Z,21.29
2022-12-25T23:26:15.766Z,21.26
2022-12-25T23:29:04.212Z,21.20
2022-12-25T23:31:37.630Z,21.13
2022-12-25T23:34:09.169Z,21.08
2022-12-25T23:36:39.903Z,21.05
2022-12-25T23:39:10.834Z,21.04
2022-12-25T23:41:42.804Z,21.02
2022-12-25T23:44:14.786Z,21.02
2022-12-25T23:46:53.124Z,21.01
2022-12-25T23:49:25.603Z,21.03
2022-12-25T23:51:57.515Z,21.06
2022-12-25T23:54:30.464Z,21.05
2022-12-25T23:57:01.669Z,21.08
2022-12-25T23:59:33.191Z,21.09
